Aviation Digital Data Service (ADDS)

Output produced by METARs form (1211 UTC 15 December 2017)
found at http://aviationweather.gov/adds/metars/
 
EDDP 151150Z 26011KT 9999 FEW015 BKN042 03/01 Q0996 NOSIG